LFLN/SYT METAR and TAF weather

Enter ICAO airport designator
Station Type Date Time Source
LFLN METAR 2019/06/16 21:00 UTC NOAA

LFLN 162100Z AUTO 00000KT CAVOK 15/12 Q1020 NOSIG


Station Type Date Time Source
LFLN Decoded METAR 2019/06/16 21:00 UTC NOAA

Saint-Yan, France (LFLN) 46-25N 004-01E 244M
Jun 16, 2019 - 05:00 PM EDT / 2019.06.16 2100 UTC
Wind: Calm:0
Visibility: greater than 7 mile(s):0
Temperature: 59 F (15 C)
Dew Point: 53 F (12 C)
Relative Humidity: 82%
Pressure (altimeter): 30.12 in. Hg (1020 hPa)
ob: LFLN 162100Z AUTO 00000KT CAVOK 15/12 Q1020 NOSIG
cycle: 21

Station Type Date Time Source
LFLN TAF UTC NOAA

Error!

Example: see airport list